Skip Navigation LinksHome page > Weather > Current weather Skip Navigation Links

Current Weather

Heathrow, London

For information only: do not use for flight planning or navigation.
Latest weather
Observation time Saturday, April 25, 2015 4:20 PM BST
Local time Saturday, April 25, 2015 4:54 PM BST
Flight conditions Visual Meteorological Conditions
Winds
Wind direction Southwest (230°)
Winds variable from 200° to 290°
Wind speed 15 mph
Wind gusting to 26 mph
Visibility 6.2 mi.
Sky condition
Ceiling unlimited
Cloud layer few clouds 4,700 ft.
Temperature 64°F
Dewpoint 45°F
Altimeter 29.65 in.Hg
Derived measurements
Relative humidity 49%
Density altitude 811 ft.
Remarks
Corrected report.
No significant changes expected in the next two hours.
METAR COR EGLL 251520Z 23013G23KT 200V290 9999 FEW047 18/07 Q1004 NOSIG

Settings

Location code

InnerDrive.Weather 4.0.5567.0 Release CLR 4.0.30319.34014
Copyright ©2015 Inner Drive Technology. All rights reserved. Portions Copyright ©1986-2015 David Braverman.

Find weather

Site navigation


Skip Navigation Links

Place info

Page info

PayPal - The safer, easier way to pay online!

Return home.

Copyright ©2015 Inner Drive Technology. Purveyors of fine, hand-crafted computer software. Page printed 2015-04-25T15:54:53 UTC.